sensor_id;sensor_type;location;lat;lon;timestamp;temperature;humidity
37378;DHT22;23248;48.120;14.854;2022-07-26T00:01:11;23.00;99.90
37378;DHT22;23248;48.120;14.854;2022-07-26T00:03:37;22.70;99.90
37378;DHT22;23248;48.120;14.854;2022-07-26T00:06:03;22.50;99.90
37378;DHT22;23248;48.120;14.854;2022-07-26T00:08:28;22.30;99.90
37378;DHT22;23248;48.120;14.854;2022-07-26T00:10:54;22.00;99.90
37378;DHT22;23248;48.120;14.854;2022-07-26T00:13:20;21.80;99.90
37378;DHT22;23248;48.120;14.854;2022-07-26T00:15:46;21.70;99.90
37378;DHT22;23248;48.120;14.854;2022-07-26T00:18:12;21.50;99.90
37378;DHT22;23248;48.120;14.854;2022-07-26T00:20:38;21.40;99.90
37378;DHT22;23248;48.120;14.854;2022-07-26T00:23:03;21.30;99.90
37378;DHT22;23248;48.120;14.854;2022-07-26T00:25:29;21.30;99.90
37378;DHT22;23248;48.120;14.854;2022-07-26T00:27:54;21.20;99.90
37378;DHT22;23248;48.120;14.854;2022-07-26T00:30:20;21.20;99.90
37378;DHT22;23248;48.120;14.854;2022-07-26T00:32:46;21.10;99.90
37378;DHT22;23248;48.120;14.854;2022-07-26T00:35:11;21.10;99.90
37378;DHT22;23248;48.120;14.854;2022-07-26T00:37:38;21.00;99.90
37378;DHT22;23248;48.120;14.854;2022-07-26T00:40:04;21.00;99.90
37378;DHT22;23248;48.120;14.854;2022-07-26T00:42:30;21.00;99.90
37378;DHT22;23248;48.120;14.854;2022-07-26T00:44:56;21.00;99.90
37378;DHT22;23248;48.120;14.854;2022-07-26T00:47:21;20.90;99.90
37378;DHT22;23248;48.120;14.854;2022-07-26T00:49:47;20.80;99.90
37378;DHT22;23248;48.120;14.854;2022-07-26T00:52:12;20.70;99.90
37378;DHT22;23248;48.120;14.854;2022-07-26T00:54:38;20.60;99.90
37378;DHT22;23248;48.120;14.854;2022-07-26T00:57:04;20.50;99.90
37378;DHT22;23248;48.120;14.854;2022-07-26T00:59:30;20.40;99.90
37378;DHT22;23248;48.120;14.854;2022-07-26T01:01:56;20.40;99.90
37378;DHT22;23248;48.120;14.854;2022-07-26T01:04:22;20.40;99.90
37378;DHT22;23248;48.120;14.854;2022-07-26T01:06:48;20.40;99.90
37378;DHT22;23248;48.120;14.854;2022-07-26T01:09:13;20.40;99.90
37378;DHT22;23248;48.120;14.854;2022-07-26T01:11:39;20.30;99.90
37378;DHT22;23248;48.120;14.854;2022-07-26T01:14:04;20.30;99.90
37378;DHT22;23248;48.120;14.854;2022-07-26T01:16:30;20.30;99.90
37378;DHT22;23248;48.120;14.854;2022-07-26T01:18:56;20.20;99.90
37378;DHT22;23248;48.120;14.854;2022-07-26T01:21:21;20.10;99.90
37378;DHT22;23248;48.120;14.854;2022-07-26T01:23:47;20.10;99.90
37378;DHT22;23248;48.120;14.854;2022-07-26T01:26:13;20.00;99.90
37378;DHT22;23248;48.120;14.854;2022-07-26T01:28:39;20.00;99.90
37378;DHT22;23248;48.120;14.854;2022-07-26T01:31:05;20.00;99.90
37378;DHT22;23248;48.120;14.854;2022-07-26T01:33:31;19.90;99.90
37378;DHT22;23248;48.120;14.854;2022-07-26T01:35:56;19.90;99.90
37378;DHT22;23248;48.120;14.854;2022-07-26T01:38:24;19.90;99.90
37378;DHT22;23248;48.120;14.854;2022-07-26T01:40:49;19.90;99.90
37378;DHT22;23248;48.120;14.854;2022-07-26T01:43:15;19.90;99.90
37378;DHT22;23248;48.120;14.854;2022-07-26T01:45:41;19.80;99.90
37378;DHT22;23248;48.120;14.854;2022-07-26T01:48:06;19.80;99.90
37378;DHT22;23248;48.120;14.854;2022-07-26T01:50:34;19.80;99.90
37378;DHT22;23248;48.120;14.854;2022-07-26T01:52:59;19.80;99.90
37378;DHT22;23248;48.120;14.854;2022-07-26T01:55:25;19.80;99.90
37378;DHT22;23248;48.120;14.854;2022-07-26T01:57:51;19.70;99.90
37378;DHT22;23248;48.120;14.854;2022-07-26T02:00:18;19.70;99.90
37378;DHT22;23248;48.120;14.854;2022-07-26T02:02:44;19.70;99.90
37378;DHT22;23248;48.120;14.854;2022-07-26T02:05:09;19.70;99.90
37378;DHT22;23248;48.120;14.854;2022-07-26T02:07:39;19.70;99.90
37378;DHT22;23248;48.120;14.854;2022-07-26T02:10:06;19.60;99.90
37378;DHT22;23248;48.120;14.854;2022-07-26T02:12:32;19.70;99.90
37378;DHT22;23248;48.120;14.854;2022-07-26T02:14:57;19.60;99.90
37378;DHT22;23248;48.120;14.854;2022-07-26T02:17:23;19.60;99.90
37378;DHT22;23248;48.120;14.854;2022-07-26T02:19:48;19.60;99.90
37378;DHT22;23248;48.120;14.854;2022-07-26T02:22:14;19.60;99.90
37378;DHT22;23248;48.120;14.854;2022-07-26T02:24:40;19.50;99.90
37378;DHT22;23248;48.120;14.854;2022-07-26T02:27:06;19.50;99.90
37378;DHT22;23248;48.120;14.854;2022-07-26T02:29:32;19.40;99.90
37378;DHT22;23248;48.120;14.854;2022-07-26T02:31:58;19.30;99.90
37378;DHT22;23248;48.120;14.854;2022-07-26T02:34:24;19.30;99.90
37378;DHT22;23248;48.120;14.854;2022-07-26T02:36:50;19.30;99.90
37378;DHT22;23248;48.120;14.854;2022-07-26T02:39:15;19.20;99.90
37378;DHT22;23248;48.120;14.854;2022-07-26T02:41:41;19.30;99.90
37378;DHT22;23248;48.120;14.854;2022-07-26T02:44:07;19.20;99.90
37378;DHT22;23248;48.120;14.854;2022-07-26T02:46:33;19.20;99.90
37378;DHT22;23248;48.120;14.854;2022-07-26T02:48:59;19.20;99.90
37378;DHT22;23248;48.120;14.854;2022-07-26T02:51:25;19.20;99.90
37378;DHT22;23248;48.120;14.854;2022-07-26T02:53:50;19.30;99.90
37378;DHT22;23248;48.120;14.854;2022-07-26T02:56:18;19.40;99.90
37378;DHT22;23248;48.120;14.854;2022-07-26T02:58:44;19.40;99.90
37378;DHT22;23248;48.120;14.854;2022-07-26T03:01:09;19.40;99.90
37378;DHT22;23248;48.120;14.854;2022-07-26T03:03:35;19.40;99.90
37378;DHT22;23248;48.120;14.854;2022-07-26T03:06:01;19.40;99.90
37378;DHT22;23248;48.120;14.854;2022-07-26T03:08:26;19.40;99.90
37378;DHT22;23248;48.120;14.854;2022-07-26T03:10:52;19.40;99.90
37378;DHT22;23248;48.120;14.854;2022-07-26T03:13:17;19.40;99.90
37378;DHT22;23248;48.120;14.854;2022-07-26T03:15:43;19.30;99.90
37378;DHT22;23248;48.120;14.854;2022-07-26T03:18:09;19.30;99.90
37378;DHT22;23248;48.120;14.854;2022-07-26T03:20:34;19.30;99.90
37378;DHT22;23248;48.120;14.854;2022-07-26T03:23:00;19.30;99.90
37378;DHT22;23248;48.120;14.854;2022-07-26T03:25:26;19.30;99.90
37378;DHT22;23248;48.120;14.854;2022-07-26T03:27:54;19.20;99.90
37378;DHT22;23248;48.120;14.854;2022-07-26T03:30:21;19.20;99.90
37378;DHT22;23248;48.120;14.854;2022-07-26T03:32:47;19.20;99.90
37378;DHT22;23248;48.120;14.854;2022-07-26T03:35:13;19.20;99.90
37378;DHT22;23248;48.120;14.854;2022-07-26T03:37:38;19.10;99.90
37378;DHT22;23248;48.120;14.854;2022-07-26T03:40:04;19.10;99.90
37378;DHT22;23248;48.120;14.854;2022-07-26T03:42:31;19.20;99.90
37378;DHT22;23248;48.120;14.854;2022-07-26T03:44:57;19.20;99.90
37378;DHT22;23248;48.120;14.854;2022-07-26T03:47:23;19.20;99.90
37378;DHT22;23248;48.120;14.854;2022-07-26T03:49:48;19.20;99.90
37378;DHT22;23248;48.120;14.854;2022-07-26T03:52:14;19.20;99.90
37378;DHT22;23248;48.120;14.854;2022-07-26T03:54:40;19.20;99.90
37378;DHT22;23248;48.120;14.854;2022-07-26T03:57:05;19.20;99.90
37378;DHT22;23248;48.120;14.854;2022-07-26T03:59:31;19.20;99.90
37378;DHT22;23248;48.120;14.854;2022-07-26T04:01:56;19.20;99.90
37378;DHT22;23248;48.120;14.854;2022-07-26T04:04:22;19.20;99.90
37378;DHT22;23248;48.120;14.854;2022-07-26T04:06:48;19.20;99.90
37378;DHT22;23248;48.120;14.854;2022-07-26T04:09:13;19.20;99.90
37378;DHT22;23248;48.120;14.854;2022-07-26T04:11:40;19.20;99.90
37378;DHT22;23248;48.120;14.854;2022-07-26T04:14:07;19.10;99.90
37378;DHT22;23248;48.120;14.854;2022-07-26T04:16:32;19.10;99.90
37378;DHT22;23248;48.120;14.854;2022-07-26T04:18:58;19.10;99.90
37378;DHT22;23248;48.120;14.854;2022-07-26T04:21:24;19.10;99.90
37378;DHT22;23248;48.120;14.854;2022-07-26T04:23:50;19.20;99.90
37378;DHT22;23248;48.120;14.854;2022-07-26T04:26:15;19.30;99.90
37378;DHT22;23248;48.120;14.854;2022-07-26T04:28:41;19.20;99.90
37378;DHT22;23248;48.120;14.854;2022-07-26T04:31:06;19.30;99.90
37378;DHT22;23248;48.120;14.854;2022-07-26T04:33:32;19.20;99.90
37378;DHT22;23248;48.120;14.854;2022-07-26T04:35:58;19.20;99.90
37378;DHT22;23248;48.120;14.854;2022-07-26T04:38:24;19.20;99.90
37378;DHT22;23248;48.120;14.854;2022-07-26T04:40:50;19.30;99.90
37378;DHT22;23248;48.120;14.854;2022-07-26T04:43:16;19.30;99.90
37378;DHT22;23248;48.120;14.854;2022-07-26T04:45:45;19.40;99.90
37378;DHT22;23248;48.120;14.854;2022-07-26T04:48:10;19.30;99.90
37378;DHT22;23248;48.120;14.854;2022-07-26T04:50:36;19.30;99.90
37378;DHT22;23248;48.120;14.854;2022-07-26T04:53:02;19.40;99.90
37378;DHT22;23248;48.120;14.854;2022-07-26T04:55:27;19.40;99.90
37378;DHT22;23248;48.120;14.854;2022-07-26T04:57:53;19.40;99.90
37378;DHT22;23248;48.120;14.854;2022-07-26T05:00:19;19.40;99.90
37378;DHT22;23248;48.120;14.854;2022-07-26T05:02:48;19.40;99.90
37378;DHT22;23248;48.120;14.854;2022-07-26T05:05:13;19.40;99.90
37378;DHT22;23248;48.120;14.854;2022-07-26T05:07:42;19.30;99.90
37378;DHT22;23248;48.120;14.854;2022-07-26T05:10:09;19.20;99.90
37378;DHT22;23248;48.120;14.854;2022-07-26T05:12:34;19.20;99.90
37378;DHT22;23248;48.120;14.854;2022-07-26T05:15:00;19.30;99.90
37378;DHT22;23248;48.120;14.854;2022-07-26T05:17:26;19.30;99.90
37378;DHT22;23248;48.120;14.854;2022-07-26T05:19:51;19.40;99.90
37378;DHT22;23248;48.120;14.854;2022-07-26T05:22:17;19.40;99.90
37378;DHT22;23248;48.120;14.854;2022-07-26T05:24:43;19.40;99.90
37378;DHT22;23248;48.120;14.854;2022-07-26T05:27:08;19.50;99.90
37378;DHT22;23248;48.120;14.854;2022-07-26T05:29:34;19.50;99.90
37378;DHT22;23248;48.120;14.854;2022-07-26T05:31:59;19.50;99.90
37378;DHT22;23248;48.120;14.854;2022-07-26T05:34:25;19.50;99.90
37378;DHT22;23248;48.120;14.854;2022-07-26T05:36:50;19.60;99.90
37378;DHT22;23248;48.120;14.854;2022-07-26T05:39:16;19.60;99.90
37378;DHT22;23248;48.120;14.854;2022-07-26T05:41:42;19.70;99.90
37378;DHT22;23248;48.120;14.854;2022-07-26T05:44:08;19.60;99.90
37378;DHT22;23248;48.120;14.854;2022-07-26T05:46:35;19.60;99.90
37378;DHT22;23248;48.120;14.854;2022-07-26T05:49:02;19.60;99.90
37378;DHT22;23248;48.120;14.854;2022-07-26T05:51:27;19.60;99.90
37378;DHT22;23248;48.120;14.854;2022-07-26T05:53:54;19.60;99.90
37378;DHT22;23248;48.120;14.854;2022-07-26T05:56:20;19.60;99.90
37378;DHT22;23248;48.120;14.854;2022-07-26T05:58:45;19.70;99.90
37378;DHT22;23248;48.120;14.854;2022-07-26T06:01:11;19.60;99.90
37378;DHT22;23248;48.120;14.854;2022-07-26T06:03:37;19.70;99.90
37378;DHT22;23248;48.120;14.854;2022-07-26T06:06:02;19.70;99.90
37378;DHT22;23248;48.120;14.854;2022-07-26T06:08:28;19.80;99.90
37378;DHT22;23248;48.120;14.854;2022-07-26T06:10:54;19.80;99.90
37378;DHT22;23248;48.120;14.854;2022-07-26T06:13:19;19.80;99.90
37378;DHT22;23248;48.120;14.854;2022-07-26T06:15:45;19.80;99.90
37378;DHT22;23248;48.120;14.854;2022-07-26T06:18:11;19.80;99.90
37378;DHT22;23248;48.120;14.854;2022-07-26T06:20:37;19.80;99.90
37378;DHT22;23248;48.120;14.854;2022-07-26T06:23:03;19.80;99.90
37378;DHT22;23248;48.120;14.854;2022-07-26T06:25:29;19.80;99.90
37378;DHT22;23248;48.120;14.854;2022-07-26T06:27:54;19.80;99.90
37378;DHT22;23248;48.120;14.854;2022-07-26T06:30:20;19.80;99.90
37378;DHT22;23248;48.120;14.854;2022-07-26T06:32:45;19.80;99.90
37378;DHT22;23248;48.120;14.854;2022-07-26T06:35:12;19.80;99.90
37378;DHT22;23248;48.120;14.854;2022-07-26T06:37:38;19.90;99.90
37378;DHT22;23248;48.120;14.854;2022-07-26T06:40:04;20.00;99.90
37378;DHT22;23248;48.120;14.854;2022-07-26T06:42:32;20.00;99.90
37378;DHT22;23248;48.120;14.854;2022-07-26T06:44:58;20.10;99.90
37378;DHT22;23248;48.120;14.854;2022-07-26T06:47:24;20.10;99.90
37378;DHT22;23248;48.120;14.854;2022-07-26T06:49:49;20.10;99.90
37378;DHT22;23248;48.120;14.854;2022-07-26T06:52:15;20.20;99.90
37378;DHT22;23248;48.120;14.854;2022-07-26T06:54:41;20.20;99.90
37378;DHT22;23248;48.120;14.854;2022-07-26T06:57:06;20.20;99.90
37378;DHT22;23248;48.120;14.854;2022-07-26T06:59:32;20.20;99.90
37378;DHT22;23248;48.120;14.854;2022-07-26T07:01:57;20.20;99.90
37378;DHT22;23248;48.120;14.854;2022-07-26T07:04:23;20.10;99.90
37378;DHT22;23248;48.120;14.854;2022-07-26T07:06:49;20.00;99.90
37378;DHT22;23248;48.120;14.854;2022-07-26T07:09:14;20.10;99.90
37378;DHT22;23248;48.120;14.854;2022-07-26T07:11:40;20.10;99.90
37378;DHT22;23248;48.120;14.854;2022-07-26T07:14:07;20.10;99.90
37378;DHT22;23248;48.120;14.854;2022-07-26T07:16:33;20.10;99.90
37378;DHT22;23248;48.120;14.854;2022-07-26T07:18:58;20.20;99.90
37378;DHT22;23248;48.120;14.854;2022-07-26T07:21:24;20.30;99.90
37378;DHT22;23248;48.120;14.854;2022-07-26T07:23:49;20.30;99.90
37378;DHT22;23248;48.120;14.854;2022-07-26T07:26:15;20.30;99.90
37378;DHT22;23248;48.120;14.854;2022-07-26T07:28:41;20.30;99.90
37378;DHT22;23248;48.120;14.854;2022-07-26T07:31:06;20.30;99.90
37378;DHT22;23248;48.120;14.854;2022-07-26T07:33:33;20.50;99.90
37378;DHT22;23248;48.120;14.854;2022-07-26T07:35:58;20.40;99.90
37378;DHT22;23248;48.120;14.854;2022-07-26T07:38:24;20.30;99.90
37378;DHT22;23248;48.120;14.854;2022-07-26T07:40:49;20.40;99.90
37378;DHT22;23248;48.120;14.854;2022-07-26T07:43:15;20.30;99.90
37378;DHT22;23248;48.120;14.854;2022-07-26T07:45:41;20.40;99.90
37378;DHT22;23248;48.120;14.854;2022-07-26T07:48:06;20.30;99.90
37378;DHT22;23248;48.120;14.854;2022-07-26T07:50:32;20.30;99.90
37378;DHT22;23248;48.120;14.854;2022-07-26T07:52:58;20.40;99.90
37378;DHT22;23248;48.120;14.854;2022-07-26T07:55:23;20.50;99.90
37378;DHT22;23248;48.120;14.854;2022-07-26T07:57:49;20.50;99.90
37378;DHT22;23248;48.120;14.854;2022-07-26T08:00:14;20.50;99.90
37378;DHT22;23248;48.120;14.854;2022-07-26T08:02:43;20.60;99.90
37378;DHT22;23248;48.120;14.854;2022-07-26T08:05:09;20.60;99.90
37378;DHT22;23248;48.120;14.854;2022-07-26T08:07:35;20.60;99.90
37378;DHT22;23248;48.120;14.854;2022-07-26T08:10:00;20.70;99.90
37378;DHT22;23248;48.120;14.854;2022-07-26T08:12:26;20.70;99.90
37378;DHT22;23248;48.120;14.854;2022-07-26T08:14:51;20.80;99.90
37378;DHT22;23248;48.120;14.854;2022-07-26T08:17:17;20.90;99.90
37378;DHT22;23248;48.120;14.854;2022-07-26T08:19:43;20.90;99.90
37378;DHT22;23248;48.120;14.854;2022-07-26T08:22:09;21.00;99.90
37378;DHT22;23248;48.120;14.854;2022-07-26T08:24:34;21.00;99.90
37378;DHT22;23248;48.120;14.854;2022-07-26T08:27:00;21.10;99.90
37378;DHT22;23248;48.120;14.854;2022-07-26T08:29:25;21.10;99.90
37378;DHT22;23248;48.120;14.854;2022-07-26T08:31:51;21.20;99.90
37378;DHT22;23248;48.120;14.854;2022-07-26T08:34:17;21.30;99.90
37378;DHT22;23248;48.120;14.854;2022-07-26T08:36:43;21.50;99.90
37378;DHT22;23248;48.120;14.854;2022-07-26T08:39:09;21.50;99.90
37378;DHT22;23248;48.120;14.854;2022-07-26T08:41:34;21.60;99.90
37378;DHT22;23248;48.120;14.854;2022-07-26T08:44:07;21.80;99.90
37378;DHT22;23248;48.120;14.854;2022-07-26T08:46:35;21.90;99.90
37378;DHT22;23248;48.120;14.854;2022-07-26T08:49:02;22.10;99.90
37378;DHT22;23248;48.120;14.854;2022-07-26T08:51:27;22.30;99.90
37378;DHT22;23248;48.120;14.854;2022-07-26T08:53:57;22.40;99.90
37378;DHT22;23248;48.120;14.854;2022-07-26T08:56:23;22.40;99.90
37378;DHT22;23248;48.120;14.854;2022-07-26T08:58:49;22.40;99.90
37378;DHT22;23248;48.120;14.854;2022-07-26T09:01:14;22.30;99.90
37378;DHT22;23248;48.120;14.854;2022-07-26T09:03:40;22.40;99.90
37378;DHT22;23248;48.120;14.854;2022-07-26T09:06:10;22.20;99.90
37378;DHT22;23248;48.120;14.854;2022-07-26T09:08:35;22.30;99.90
37378;DHT22;23248;48.120;14.854;2022-07-26T09:11:01;22.20;99.90
37378;DHT22;23248;48.120;14.854;2022-07-26T09:13:48;22.10;99.90
37378;DHT22;23248;48.120;14.854;2022-07-26T09:16:12;22.00;99.90
37378;DHT22;23248;48.120;14.854;2022-07-26T09:18:38;22.00;99.90
37378;DHT22;23248;48.120;14.854;2022-07-26T09:21:04;21.90;99.90
37378;DHT22;23248;48.120;14.854;2022-07-26T09:23:39;21.90;99.90
37378;DHT22;23248;48.120;14.854;2022-07-26T09:26:05;21.90;99.90
37378;DHT22;23248;48.120;14.854;2022-07-26T09:28:31;21.90;99.90
37378;DHT22;23248;48.120;14.854;2022-07-26T09:31:00;22.20;99.90
37378;DHT22;23248;48.120;14.854;2022-07-26T09:33:26;22.50;99.90
37378;DHT22;23248;48.120;14.854;2022-07-26T09:36:07;22.70;99.90
37378;DHT22;23248;48.120;14.854;2022-07-26T09:38:44;23.00;99.90
37378;DHT22;23248;48.120;14.854;2022-07-26T09:43:49;23.20;99.90
37378;DHT22;23248;48.120;14.854;2022-07-26T09:46:15;23.00;99.90
37378;DHT22;23248;48.120;14.854;2022-07-26T09:48:41;22.90;99.90
37378;DHT22;23248;48.120;14.854;2022-07-26T09:51:07;22.90;99.90
37378;DHT22;23248;48.120;14.854;2022-07-26T09:53:39;22.60;99.90
37378;DHT22;23248;48.120;14.854;2022-07-26T09:56:05;22.60;99.90
37378;DHT22;23248;48.120;14.854;2022-07-26T09:58:31;22.60;99.90
37378;DHT22;23248;48.120;14.854;2022-07-26T10:00:57;22.60;99.90
37378;DHT22;23248;48.120;14.854;2022-07-26T10:03:22;22.70;99.90
37378;DHT22;23248;48.120;14.854;2022-07-26T10:05:48;23.00;99.90
37378;DHT22;23248;48.120;14.854;2022-07-26T10:08:14;23.50;99.90
37378;DHT22;23248;48.120;14.854;2022-07-26T10:11:06;23.90;99.90
37378;DHT22;23248;48.120;14.854;2022-07-26T10:13:33;24.30;99.90
37378;DHT22;23248;48.120;14.854;2022-07-26T10:15:59;24.60;99.90
37378;DHT22;23248;48.120;14.854;2022-07-26T10:23:49;24.60;99.90
37378;DHT22;23248;48.120;14.854;2022-07-26T10:31:40;23.70;99.90
37378;DHT22;23248;48.120;14.854;2022-07-26T10:34:05;23.50;99.90
37378;DHT22;23248;48.120;14.854;2022-07-26T10:36:36;23.30;99.90
37378;DHT22;23248;48.120;14.854;2022-07-26T10:41:46;23.20;99.90
37378;DHT22;23248;48.120;14.854;2022-07-26T10:44:21;23.20;99.90
37378;DHT22;23248;48.120;14.854;2022-07-26T10:49:55;23.30;99.90
37378;DHT22;23248;48.120;14.854;2022-07-26T10:52:28;23.40;99.90
37378;DHT22;23248;48.120;14.854;2022-07-26T10:59:54;24.40;99.90
37378;DHT22;23248;48.120;14.854;2022-07-26T11:07:29;24.80;99.90
37378;DHT22;23248;48.120;14.854;2022-07-26T11:09:55;24.80;99.90
37378;DHT22;23248;48.120;14.854;2022-07-26T11:12:21;24.70;99.90
37378;DHT22;23248;48.120;14.854;2022-07-26T11:14:47;24.50;99.90
37378;DHT22;23248;48.120;14.854;2022-07-26T11:17:23;24.30;99.90
37378;DHT22;23248;48.120;14.854;2022-07-26T11:19:49;24.20;99.90
37378;DHT22;23248;48.120;14.854;2022-07-26T11:22:15;24.30;99.90
37378;DHT22;23248;48.120;14.854;2022-07-26T11:24:41;24.40;99.90
37378;DHT22;23248;48.120;14.854;2022-07-26T11:27:06;24.50;99.90
37378;DHT22;23248;48.120;14.854;2022-07-26T11:29:34;24.70;99.90
37378;DHT22;23248;48.120;14.854;2022-07-26T11:32:00;25.00;99.90
37378;DHT22;23248;48.120;14.854;2022-07-26T11:34:30;25.20;99.90
37378;DHT22;23248;48.120;14.854;2022-07-26T11:37:00;25.20;99.90
37378;DHT22;23248;48.120;14.854;2022-07-26T11:39:27;25.20;99.90
37378;DHT22;23248;48.120;14.854;2022-07-26T11:41:58;25.20;99.90
37378;DHT22;23248;48.120;14.854;2022-07-26T11:44:25;25.60;99.90
37378;DHT22;23248;48.120;14.854;2022-07-26T11:46:50;25.90;99.90
37378;DHT22;23248;48.120;14.854;2022-07-26T11:51:52;26.20;99.90
37378;DHT22;23248;48.120;14.854;2022-07-26T11:54:19;26.10;99.90
37378;DHT22;23248;48.120;14.854;2022-07-26T11:59:19;26.30;99.90
37378;DHT22;23248;48.120;14.854;2022-07-26T12:01:45;26.40;99.90
37378;DHT22;23248;48.120;14.854;2022-07-26T12:04:44;26.50;99.90
37378;DHT22;23248;48.120;14.854;2022-07-26T12:07:10;26.50;99.90
37378;DHT22;23248;48.120;14.854;2022-07-26T12:09:37;26.30;99.90
37378;DHT22;23248;48.120;14.854;2022-07-26T12:12:04;26.00;99.90
37378;DHT22;23248;48.120;14.854;2022-07-26T12:14:34;26.10;99.90
37378;DHT22;23248;48.120;14.854;2022-07-26T12:17:09;26.40;99.90
37378;DHT22;23248;48.120;14.854;2022-07-26T12:19:35;26.30;99.90
37378;DHT22;23248;48.120;14.854;2022-07-26T12:22:11;26.00;99.90
37378;DHT22;23248;48.120;14.854;2022-07-26T12:24:41;25.80;99.90
37378;DHT22;23248;48.120;14.854;2022-07-26T12:29:32;25.50;99.90
37378;DHT22;23248;48.120;14.854;2022-07-26T12:32:03;25.30;99.90
37378;DHT22;23248;48.120;14.854;2022-07-26T12:34:29;25.20;99.90
37378;DHT22;23248;48.120;14.854;2022-07-26T12:37:04;25.00;99.90
37378;DHT22;23248;48.120;14.854;2022-07-26T12:39:30;24.80;99.90
37378;DHT22;23248;48.120;14.854;2022-07-26T12:41:55;24.60;99.90
37378;DHT22;23248;48.120;14.854;2022-07-26T12:44:21;24.40;99.90
37378;DHT22;23248;48.120;14.854;2022-07-26T12:46:47;24.30;99.90
37378;DHT22;23248;48.120;14.854;2022-07-26T12:49:13;24.30;99.90
37378;DHT22;23248;48.120;14.854;2022-07-26T12:51:38;24.20;99.90
37378;DHT22;23248;48.120;14.854;2022-07-26T12:54:04;24.20;99.90
37378;DHT22;23248;48.120;14.854;2022-07-26T12:56:31;24.10;99.90
37378;DHT22;23248;48.120;14.854;2022-07-26T12:58:57;24.20;99.90
37378;DHT22;23248;48.120;14.854;2022-07-26T13:01:26;24.10;99.90
37378;DHT22;23248;48.120;14.854;2022-07-26T13:03:52;24.10;99.90
37378;DHT22;23248;48.120;14.854;2022-07-26T13:06:18;24.00;99.90
37378;DHT22;23248;48.120;14.854;2022-07-26T13:08:44;23.80;99.90
37378;DHT22;23248;48.120;14.854;2022-07-26T13:11:09;23.60;99.90
37378;DHT22;23248;48.120;14.854;2022-07-26T13:13:35;23.60;99.90
37378;DHT22;23248;48.120;14.854;2022-07-26T13:16:00;23.50;99.90
37378;DHT22;23248;48.120;14.854;2022-07-26T13:18:26;23.40;99.90
37378;DHT22;23248;48.120;14.854;2022-07-26T13:20:51;23.70;99.90
37378;DHT22;23248;48.120;14.854;2022-07-26T13:23:17;24.20;99.90
37378;DHT22;23248;48.120;14.854;2022-07-26T13:25:43;24.40;99.90
37378;DHT22;23248;48.120;14.854;2022-07-26T13:28:08;24.70;99.90
37378;DHT22;23248;48.120;14.854;2022-07-26T13:30:37;24.90;99.90
37378;DHT22;23248;48.120;14.854;2022-07-26T13:33:03;24.90;99.90
37378;DHT22;23248;48.120;14.854;2022-07-26T13:35:29;24.80;99.90
37378;DHT22;23248;48.120;14.854;2022-07-26T13:37:54;24.50;99.90
37378;DHT22;23248;48.120;14.854;2022-07-26T13:40:20;24.40;99.90
37378;DHT22;23248;48.120;14.854;2022-07-26T13:42:46;24.30;99.90
37378;DHT22;23248;48.120;14.854;2022-07-26T13:45:14;24.40;99.90
37378;DHT22;23248;48.120;14.854;2022-07-26T13:47:39;24.50;99.90
37378;DHT22;23248;48.120;14.854;2022-07-26T13:50:05;24.80;99.90
37378;DHT22;23248;48.120;14.854;2022-07-26T13:52:31;25.00;99.90
37378;DHT22;23248;48.120;14.854;2022-07-26T13:54:57;25.00;99.90
37378;DHT22;23248;48.120;14.854;2022-07-26T13:57:22;24.90;99.90
37378;DHT22;23248;48.120;14.854;2022-07-26T13:59:48;24.80;99.90
37378;DHT22;23248;48.120;14.854;2022-07-26T14:02:14;24.70;99.90
37378;DHT22;23248;48.120;14.854;2022-07-26T14:04:39;24.80;99.90
37378;DHT22;23248;48.120;14.854;2022-07-26T14:07:06;24.70;99.90
37378;DHT22;23248;48.120;14.854;2022-07-26T14:09:32;24.70;99.90
37378;DHT22;23248;48.120;14.854;2022-07-26T14:11:58;24.60;99.90
37378;DHT22;23248;48.120;14.854;2022-07-26T14:14:23;24.50;99.90
37378;DHT22;23248;48.120;14.854;2022-07-26T14:16:49;24.50;99.90
37378;DHT22;23248;48.120;14.854;2022-07-26T14:19:15;24.40;99.90
37378;DHT22;23248;48.120;14.854;2022-07-26T14:21:40;24.40;99.90
37378;DHT22;23248;48.120;14.854;2022-07-26T14:24:06;24.30;99.90
37378;DHT22;23248;48.120;14.854;2022-07-26T14:26:32;24.10;99.90
37378;DHT22;23248;48.120;14.854;2022-07-26T14:28:57;23.80;99.90
37378;DHT22;23248;48.120;14.854;2022-07-26T14:31:23;23.70;99.90
37378;DHT22;23248;48.120;14.854;2022-07-26T14:33:49;23.60;99.90
37378;DHT22;23248;48.120;14.854;2022-07-26T14:36:14;23.70;99.90
37378;DHT22;23248;48.120;14.854;2022-07-26T14:38:40;23.60;99.90
37378;DHT22;23248;48.120;14.854;2022-07-26T14:41:07;23.50;99.90
37378;DHT22;23248;48.120;14.854;2022-07-26T14:43:32;23.30;99.90
37378;DHT22;23248;48.120;14.854;2022-07-26T14:45:58;23.20;99.90
37378;DHT22;23248;48.120;14.854;2022-07-26T14:48:24;23.10;99.90
37378;DHT22;23248;48.120;14.854;2022-07-26T14:50:49;23.10;99.90
37378;DHT22;23248;48.120;14.854;2022-07-26T14:53:15;23.00;99.90
37378;DHT22;23248;48.120;14.854;2022-07-26T14:55:41;23.20;99.90
37378;DHT22;23248;48.120;14.854;2022-07-26T14:58:06;23.30;99.90
37378;DHT22;23248;48.120;14.854;2022-07-26T15:00:32;23.50;99.90
37378;DHT22;23248;48.120;14.854;2022-07-26T15:02:57;24.00;99.90
37378;DHT22;23248;48.120;14.854;2022-07-26T15:05:23;24.40;99.90
37378;DHT22;23248;48.120;14.854;2022-07-26T15:07:51;24.50;99.90
37378;DHT22;23248;48.120;14.854;2022-07-26T15:10:16;24.50;99.90
37378;DHT22;23248;48.120;14.854;2022-07-26T15:12:42;24.50;99.90
37378;DHT22;23248;48.120;14.854;2022-07-26T15:15:08;24.50;99.90
37378;DHT22;23248;48.120;14.854;2022-07-26T15:17:34;24.50;99.90
37378;DHT22;23248;48.120;14.854;2022-07-26T15:20:00;24.50;99.90
37378;DHT22;23248;48.120;14.854;2022-07-26T15:22:26;24.90;99.90
37378;DHT22;23248;48.120;14.854;2022-07-26T15:24:51;25.40;99.90
37378;DHT22;23248;48.120;14.854;2022-07-26T15:27:17;25.70;99.90
37378;DHT22;23248;48.120;14.854;2022-07-26T15:29:43;25.70;99.90
37378;DHT22;23248;48.120;14.854;2022-07-26T15:32:10;26.10;99.90
37378;DHT22;23248;48.120;14.854;2022-07-26T15:34:36;26.20;99.90
37378;DHT22;23248;48.120;14.854;2022-07-26T15:37:02;26.70;99.90
37378;DHT22;23248;48.120;14.854;2022-07-26T15:39:27;27.00;99.90
37378;DHT22;23248;48.120;14.854;2022-07-26T15:41:53;27.10;99.90
37378;DHT22;23248;48.120;14.854;2022-07-26T15:44:19;26.80;99.90
37378;DHT22;23248;48.120;14.854;2022-07-26T15:46:45;26.80;99.90